sensor_id;sensor_type;location;lat;lon;timestamp;pressure;altitude;pressure_sealevel;temperature
12061;BMP180;6091;51.432;6.880;2023-01-01T00:00:43;100258.00;;;23.90
12061;BMP180;6091;51.432;6.880;2023-01-01T00:03:11;100262.00;;;23.90
12061;BMP180;6091;51.432;6.880;2023-01-01T00:05:38;100262.00;;;23.90
12061;BMP180;6091;51.432;6.880;2023-01-01T00:08:07;100263.00;;;23.90
12061;BMP180;6091;51.432;6.880;2023-01-01T00:10:36;100267.00;;;23.90
12061;BMP180;6091;51.432;6.880;2023-01-01T00:13:03;100253.00;;;23.80
12061;BMP180;6091;51.432;6.880;2023-01-01T00:15:33;100260.00;;;23.80
12061;BMP180;6091;51.432;6.880;2023-01-01T00:18:00;100262.00;;;23.80
12061;BMP180;6091;51.432;6.880;2023-01-01T00:20:27;100247.00;;;23.90
12061;BMP180;6091;51.432;6.880;2023-01-01T00:23:00;100246.00;;;23.90
12061;BMP180;6091;51.432;6.880;2023-01-01T00:25:27;100252.00;;;23.90
12061;BMP180;6091;51.432;6.880;2023-01-01T00:27:54;100246.00;;;23.90
12061;BMP180;6091;51.432;6.880;2023-01-01T00:30:21;100242.00;;;23.90
12061;BMP180;6091;51.432;6.880;2023-01-01T00:32:50;100248.00;;;23.90
12061;BMP180;6091;51.432;6.880;2023-01-01T00:35:24;100255.00;;;23.90
12061;BMP180;6091;51.432;6.880;2023-01-01T00:37:53;100249.00;;;23.90
12061;BMP180;6091;51.432;6.880;2023-01-01T00:40:23;100259.00;;;23.90
12061;BMP180;6091;51.432;6.880;2023-01-01T00:42:50;100269.00;;;23.90
12061;BMP180;6091;51.432;6.880;2023-01-01T00:45:17;100269.00;;;23.90
12061;BMP180;6091;51.432;6.880;2023-01-01T00:47:52;100267.00;;;23.90
12061;BMP180;6091;51.432;6.880;2023-01-01T00:50:26;100261.00;;;23.90
12061;BMP180;6091;51.432;6.880;2023-01-01T00:52:53;100270.00;;;23.90
12061;BMP180;6091;51.432;6.880;2023-01-01T00:55:20;100264.00;;;23.90
12061;BMP180;6091;51.432;6.880;2023-01-01T00:57:47;100267.00;;;23.90
12061;BMP180;6091;51.432;6.880;2023-01-01T01:00:15;100257.00;;;23.90
12061;BMP180;6091;51.432;6.880;2023-01-01T01:02:42;100256.00;;;23.90
12061;BMP180;6091;51.432;6.880;2023-01-01T01:05:09;100255.00;;;23.90
12061;BMP180;6091;51.432;6.880;2023-01-01T01:07:37;100267.00;;;23.90
12061;BMP180;6091;51.432;6.880;2023-01-01T01:10:05;100252.00;;;23.90
12061;BMP180;6091;51.432;6.880;2023-01-01T01:12:34;100266.00;;;23.90
12061;BMP180;6091;51.432;6.880;2023-01-01T01:15:03;100263.00;;;23.90
12061;BMP180;6091;51.432;6.880;2023-01-01T01:17:30;100275.00;;;23.90
12061;BMP180;6091;51.432;6.880;2023-01-01T01:19:57;100271.00;;;23.90
12061;BMP180;6091;51.432;6.880;2023-01-01T01:22:25;100277.00;;;23.90
12061;BMP180;6091;51.432;6.880;2023-01-01T01:24:55;100264.00;;;23.90
12061;BMP180;6091;51.432;6.880;2023-01-01T01:27:23;100271.00;;;23.90
12061;BMP180;6091;51.432;6.880;2023-01-01T01:29:50;100275.00;;;23.90
12061;BMP180;6091;51.432;6.880;2023-01-01T01:32:23;100271.00;;;23.90
12061;BMP180;6091;51.432;6.880;2023-01-01T01:34:50;100271.00;;;23.90
12061;BMP180;6091;51.432;6.880;2023-01-01T01:37:17;100281.00;;;23.90
12061;BMP180;6091;51.432;6.880;2023-01-01T01:39:44;100286.00;;;23.90
12061;BMP180;6091;51.432;6.880;2023-01-01T01:42:19;100288.00;;;23.90
12061;BMP180;6091;51.432;6.880;2023-01-01T01:45:00;100288.00;;;23.90
12061;BMP180;6091;51.432;6.880;2023-01-01T01:47:38;100285.00;;;23.80
12061;BMP180;6091;51.432;6.880;2023-01-01T01:50:25;100287.00;;;23.90
12061;BMP180;6091;51.432;6.880;2023-01-01T01:53:22;100288.00;;;23.80
12061;BMP180;6091;51.432;6.880;2023-01-01T01:55:58;100296.00;;;23.80
12061;BMP180;6091;51.432;6.880;2023-01-01T01:58:29;100303.00;;;23.80
12061;BMP180;6091;51.432;6.880;2023-01-01T02:00:58;100297.00;;;23.80
12061;BMP180;6091;51.432;6.880;2023-01-01T02:03:40;100303.00;;;23.80
12061;BMP180;6091;51.432;6.880;2023-01-01T02:06:10;100299.00;;;23.80
12061;BMP180;6091;51.432;6.880;2023-01-01T02:08:37;100312.00;;;23.80
12061;BMP180;6091;51.432;6.880;2023-01-01T02:11:05;100300.00;;;23.80
12061;BMP180;6091;51.432;6.880;2023-01-01T02:13:32;100305.00;;;23.80
12061;BMP180;6091;51.432;6.880;2023-01-01T02:19:15;100300.00;;;23.80
12061;BMP180;6091;51.432;6.880;2023-01-01T02:22:14;100304.00;;;23.80
12061;BMP180;6091;51.432;6.880;2023-01-01T02:25:08;100305.00;;;23.80
12061;BMP180;6091;51.432;6.880;2023-01-01T02:28:07;100303.00;;;23.80
12061;BMP180;6091;51.432;6.880;2023-01-01T02:30:40;100305.00;;;23.80
12061;BMP180;6091;51.432;6.880;2023-01-01T02:33:15;100301.00;;;23.80
12061;BMP180;6091;51.432;6.880;2023-01-01T02:35:52;100299.00;;;23.80
12061;BMP180;6091;51.432;6.880;2023-01-01T02:41:32;100316.00;;;23.80
12061;BMP180;6091;51.432;6.880;2023-01-01T02:44:02;100301.00;;;23.80
12061;BMP180;6091;51.432;6.880;2023-01-01T02:46:34;100289.00;;;23.80
12061;BMP180;6091;51.432;6.880;2023-01-01T02:49:02;100309.00;;;23.80
12061;BMP180;6091;51.432;6.880;2023-01-01T02:57:36;100314.00;;;23.80
12061;BMP180;6091;51.432;6.880;2023-01-01T03:00:15;100311.00;;;23.80
12061;BMP180;6091;51.432;6.880;2023-01-01T03:14:41;100338.00;;;23.70
12061;BMP180;6091;51.432;6.880;2023-01-01T03:17:30;100341.00;;;23.70
12061;BMP180;6091;51.432;6.880;2023-01-01T03:20:07;100334.00;;;23.70
12061;BMP180;6091;51.432;6.880;2023-01-01T03:22:41;100330.00;;;23.80
12061;BMP180;6091;51.432;6.880;2023-01-01T03:25:31;100318.00;;;23.70
12061;BMP180;6091;51.432;6.880;2023-01-01T03:28:05;100322.00;;;23.70
12061;BMP180;6091;51.432;6.880;2023-01-01T03:30:37;100334.00;;;23.80
12061;BMP180;6091;51.432;6.880;2023-01-01T03:33:38;100340.00;;;23.70
12061;BMP180;6091;51.432;6.880;2023-01-01T03:36:18;100344.00;;;23.70
12061;BMP180;6091;51.432;6.880;2023-01-01T03:38:59;100344.00;;;23.70
12061;BMP180;6091;51.432;6.880;2023-01-01T03:41:48;100342.00;;;23.70
12061;BMP180;6091;51.432;6.880;2023-01-01T03:44:24;100341.00;;;23.70
12061;BMP180;6091;51.432;6.880;2023-01-01T03:46:53;100338.00;;;23.70
12061;BMP180;6091;51.432;6.880;2023-01-01T03:49:21;100352.00;;;23.70
12061;BMP180;6091;51.432;6.880;2023-01-01T04:01:00;100347.00;;;23.70
12061;BMP180;6091;51.432;6.880;2023-01-01T04:03:32;100376.00;;;23.70
12061;BMP180;6091;51.432;6.880;2023-01-01T04:06:02;100366.00;;;23.70
12061;BMP180;6091;51.432;6.880;2023-01-01T04:08:33;100375.00;;;23.70
12061;BMP180;6091;51.432;6.880;2023-01-01T04:11:06;100365.00;;;23.70
12061;BMP180;6091;51.432;6.880;2023-01-01T04:13:56;100366.00;;;23.60
12061;BMP180;6091;51.432;6.880;2023-01-01T04:16:25;100358.00;;;23.70
12061;BMP180;6091;51.432;6.880;2023-01-01T04:18:52;100351.00;;;23.70
12061;BMP180;6091;51.432;6.880;2023-01-01T04:21:19;100366.00;;;23.70
12061;BMP180;6091;51.432;6.880;2023-01-01T04:23:46;100379.00;;;23.70
12061;BMP180;6091;51.432;6.880;2023-01-01T04:26:14;100378.00;;;23.70
12061;BMP180;6091;51.432;6.880;2023-01-01T04:28:42;100364.00;;;23.70
12061;BMP180;6091;51.432;6.880;2023-01-01T04:31:10;100369.00;;;23.70
12061;BMP180;6091;51.432;6.880;2023-01-01T04:33:37;100374.00;;;23.70
12061;BMP180;6091;51.432;6.880;2023-01-01T04:36:08;100372.00;;;23.70
12061;BMP180;6091;51.432;6.880;2023-01-01T04:38:36;100372.00;;;23.70
12061;BMP180;6091;51.432;6.880;2023-01-01T04:41:04;100366.00;;;23.70
12061;BMP180;6091;51.432;6.880;2023-01-01T04:43:31;100375.00;;;23.70
12061;BMP180;6091;51.432;6.880;2023-01-01T04:46:01;100383.00;;;23.80
12061;BMP180;6091;51.432;6.880;2023-01-01T04:48:30;100391.00;;;23.80
12061;BMP180;6091;51.432;6.880;2023-01-01T04:51:02;100384.00;;;23.70
12061;BMP180;6091;51.432;6.880;2023-01-01T04:53:32;100389.00;;;23.70
12061;BMP180;6091;51.432;6.880;2023-01-01T04:56:05;100393.00;;;23.70
12061;BMP180;6091;51.432;6.880;2023-01-01T04:58:35;100402.00;;;23.70
12061;BMP180;6091;51.432;6.880;2023-01-01T05:01:02;100391.00;;;23.70
12061;BMP180;6091;51.432;6.880;2023-01-01T05:03:30;100400.00;;;23.70
12061;BMP180;6091;51.432;6.880;2023-01-01T05:06:09;100386.00;;;23.70
12061;BMP180;6091;51.432;6.880;2023-01-01T05:08:39;100379.00;;;23.70
12061;BMP180;6091;51.432;6.880;2023-01-01T05:11:11;100383.00;;;23.70
12061;BMP180;6091;51.432;6.880;2023-01-01T05:13:41;100398.00;;;23.70
12061;BMP180;6091;51.432;6.880;2023-01-01T05:16:13;100397.00;;;23.70
12061;BMP180;6091;51.432;6.880;2023-01-01T05:18:41;100387.00;;;23.70
12061;BMP180;6091;51.432;6.880;2023-01-01T05:21:23;100380.00;;;23.70
12061;BMP180;6091;51.432;6.880;2023-01-01T05:23:56;100381.00;;;23.70
12061;BMP180;6091;51.432;6.880;2023-01-01T05:26:30;100385.00;;;23.70
12061;BMP180;6091;51.432;6.880;2023-01-01T05:28:59;100396.00;;;23.70
12061;BMP180;6091;51.432;6.880;2023-01-01T05:31:31;100400.00;;;23.70
12061;BMP180;6091;51.432;6.880;2023-01-01T05:34:00;100406.00;;;23.70
12061;BMP180;6091;51.432;6.880;2023-01-01T05:36:33;100411.00;;;23.70
12061;BMP180;6091;51.432;6.880;2023-01-01T05:39:07;100431.00;;;23.70
12061;BMP180;6091;51.432;6.880;2023-01-01T05:41:34;100431.00;;;23.70
12061;BMP180;6091;51.432;6.880;2023-01-01T05:44:06;100429.00;;;23.70
12061;BMP180;6091;51.432;6.880;2023-01-01T05:46:35;100438.00;;;23.70
12061;BMP180;6091;51.432;6.880;2023-01-01T05:49:03;100419.00;;;23.70
12061;BMP180;6091;51.432;6.880;2023-01-01T05:51:30;100437.00;;;23.70
12061;BMP180;6091;51.432;6.880;2023-01-01T05:54:00;100440.00;;;23.70
12061;BMP180;6091;51.432;6.880;2023-01-01T05:56:27;100463.00;;;23.70
12061;BMP180;6091;51.432;6.880;2023-01-01T05:58:55;100465.00;;;23.70
12061;BMP180;6091;51.432;6.880;2023-01-01T06:01:28;100438.00;;;23.70
12061;BMP180;6091;51.432;6.880;2023-01-01T06:03:58;100439.00;;;23.70
12061;BMP180;6091;51.432;6.880;2023-01-01T06:06:29;100460.00;;;23.70
12061;BMP180;6091;51.432;6.880;2023-01-01T06:08:59;100461.00;;;23.70
12061;BMP180;6091;51.432;6.880;2023-01-01T06:11:28;100483.00;;;23.70
12061;BMP180;6091;51.432;6.880;2023-01-01T06:13:59;100494.00;;;23.70
12061;BMP180;6091;51.432;6.880;2023-01-01T06:16:28;100485.00;;;23.70
12061;BMP180;6091;51.432;6.880;2023-01-01T06:18:56;100493.00;;;23.70
12061;BMP180;6091;51.432;6.880;2023-01-01T06:21:27;100491.00;;;23.70
12061;BMP180;6091;51.432;6.880;2023-01-01T06:23:57;100494.00;;;23.70
12061;BMP180;6091;51.432;6.880;2023-01-01T06:26:29;100497.00;;;23.70
12061;BMP180;6091;51.432;6.880;2023-01-01T06:28:58;100502.00;;;23.70
12061;BMP180;6091;51.432;6.880;2023-01-01T06:31:27;100508.00;;;23.70
12061;BMP180;6091;51.432;6.880;2023-01-01T06:33:55;100498.00;;;23.70
12061;BMP180;6091;51.432;6.880;2023-01-01T06:36:25;100512.00;;;23.70
12061;BMP180;6091;51.432;6.880;2023-01-01T06:38:55;100519.00;;;23.70
12061;BMP180;6091;51.432;6.880;2023-01-01T06:41:26;100510.00;;;23.70
12061;BMP180;6091;51.432;6.880;2023-01-01T06:43:55;100511.00;;;23.70
12061;BMP180;6091;51.432;6.880;2023-01-01T06:46:37;100524.00;;;23.70
12061;BMP180;6091;51.432;6.880;2023-01-01T06:49:10;100534.00;;;23.70
12061;BMP180;6091;51.432;6.880;2023-01-01T06:51:42;100536.00;;;23.70
12061;BMP180;6091;51.432;6.880;2023-01-01T06:54:10;100536.00;;;23.70
12061;BMP180;6091;51.432;6.880;2023-01-01T06:56:38;100538.00;;;23.70
12061;BMP180;6091;51.432;6.880;2023-01-01T06:59:05;100520.00;;;23.70
12061;BMP180;6091;51.432;6.880;2023-01-01T07:01:34;100528.00;;;23.70
12061;BMP180;6091;51.432;6.880;2023-01-01T07:04:06;100531.00;;;23.70
12061;BMP180;6091;51.432;6.880;2023-01-01T07:06:35;100538.00;;;23.70
12061;BMP180;6091;51.432;6.880;2023-01-01T07:09:03;100549.00;;;23.70
12061;BMP180;6091;51.432;6.880;2023-01-01T07:11:31;100544.00;;;23.70
12061;BMP180;6091;51.432;6.880;2023-01-01T07:13:58;100551.00;;;23.70
12061;BMP180;6091;51.432;6.880;2023-01-01T07:16:26;100553.00;;;23.70
12061;BMP180;6091;51.432;6.880;2023-01-01T07:18:53;100556.00;;;23.70
12061;BMP180;6091;51.432;6.880;2023-01-01T07:21:43;100564.00;;;23.70
12061;BMP180;6091;51.432;6.880;2023-01-01T07:24:14;100566.00;;;23.70
12061;BMP180;6091;51.432;6.880;2023-01-01T07:26:45;100587.00;;;23.70
12061;BMP180;6091;51.432;6.880;2023-01-01T07:29:12;100587.00;;;23.70
12061;BMP180;6091;51.432;6.880;2023-01-01T07:31:42;100587.00;;;23.70
12061;BMP180;6091;51.432;6.880;2023-01-01T07:34:14;100596.00;;;23.70
12061;BMP180;6091;51.432;6.880;2023-01-01T07:36:42;100602.00;;;23.70
12061;BMP180;6091;51.432;6.880;2023-01-01T07:39:09;100612.00;;;23.70
12061;BMP180;6091;51.432;6.880;2023-01-01T07:41:36;100612.00;;;23.70
12061;BMP180;6091;51.432;6.880;2023-01-01T07:44:03;100604.00;;;23.70
12061;BMP180;6091;51.432;6.880;2023-01-01T07:46:34;100605.00;;;23.70
12061;BMP180;6091;51.432;6.880;2023-01-01T07:49:02;100613.00;;;23.70
12061;BMP180;6091;51.432;6.880;2023-01-01T07:51:29;100628.00;;;23.70
12061;BMP180;6091;51.432;6.880;2023-01-01T07:53:56;100619.00;;;23.70
12061;BMP180;6091;51.432;6.880;2023-01-01T07:56:34;100609.00;;;23.70
12061;BMP180;6091;51.432;6.880;2023-01-01T07:59:03;100632.00;;;23.70
12061;BMP180;6091;51.432;6.880;2023-01-01T08:01:35;100632.00;;;23.70
12061;BMP180;6091;51.432;6.880;2023-01-01T08:04:05;100633.00;;;23.60
12061;BMP180;6091;51.432;6.880;2023-01-01T08:06:32;100635.00;;;23.70
12061;BMP180;6091;51.432;6.880;2023-01-01T08:08:59;100641.00;;;23.60
12061;BMP180;6091;51.432;6.880;2023-01-01T08:11:27;100643.00;;;23.70
12061;BMP180;6091;51.432;6.880;2023-01-01T08:13:56;100654.00;;;23.70
12061;BMP180;6091;51.432;6.880;2023-01-01T08:16:23;100666.00;;;23.60
12061;BMP180;6091;51.432;6.880;2023-01-01T08:18:50;100659.00;;;23.70
12061;BMP180;6091;51.432;6.880;2023-01-01T08:21:20;100670.00;;;23.70
12061;BMP180;6091;51.432;6.880;2023-01-01T08:23:47;100676.00;;;23.60
12061;BMP180;6091;51.432;6.880;2023-01-01T08:26:16;100672.00;;;23.60
12061;BMP180;6091;51.432;6.880;2023-01-01T08:28:44;100664.00;;;23.60
12061;BMP180;6091;51.432;6.880;2023-01-01T08:31:13;100664.00;;;23.70
12061;BMP180;6091;51.432;6.880;2023-01-01T08:33:40;100661.00;;;23.60
12061;BMP180;6091;51.432;6.880;2023-01-01T08:36:11;100676.00;;;23.60
12061;BMP180;6091;51.432;6.880;2023-01-01T08:38:39;100668.00;;;23.60
12061;BMP180;6091;51.432;6.880;2023-01-01T08:41:07;100689.00;;;23.60
12061;BMP180;6091;51.432;6.880;2023-01-01T08:43:34;100699.00;;;23.60
12061;BMP180;6091;51.432;6.880;2023-01-01T08:46:01;100702.00;;;23.60
12061;BMP180;6091;51.432;6.880;2023-01-01T08:48:28;100707.00;;;23.60
12061;BMP180;6091;51.432;6.880;2023-01-01T08:50:59;100707.00;;;23.60
12061;BMP180;6091;51.432;6.880;2023-01-01T08:53:28;100704.00;;;23.60
12061;BMP180;6091;51.432;6.880;2023-01-01T08:56:10;100710.00;;;23.60
12061;BMP180;6091;51.432;6.880;2023-01-01T08:58:39;100710.00;;;23.60
12061;BMP180;6091;51.432;6.880;2023-01-01T09:01:07;100724.00;;;23.60
12061;BMP180;6091;51.432;6.880;2023-01-01T09:03:35;100716.00;;;23.60
12061;BMP180;6091;51.432;6.880;2023-01-01T09:06:03;100721.00;;;23.60
12061;BMP180;6091;51.432;6.880;2023-01-01T09:08:33;100727.00;;;23.60
12061;BMP180;6091;51.432;6.880;2023-01-01T09:11:03;100737.00;;;23.60
12061;BMP180;6091;51.432;6.880;2023-01-01T09:13:31;100748.00;;;23.60
12061;BMP180;6091;51.432;6.880;2023-01-01T09:16:01;100749.00;;;23.70
12061;BMP180;6091;51.432;6.880;2023-01-01T09:18:28;100754.00;;;23.70
12061;BMP180;6091;51.432;6.880;2023-01-01T09:20:55;100773.00;;;23.70
12061;BMP180;6091;51.432;6.880;2023-01-01T09:23:22;100762.00;;;23.70
12061;BMP180;6091;51.432;6.880;2023-01-01T09:25:49;100766.00;;;23.70
12061;BMP180;6091;51.432;6.880;2023-01-01T09:28:16;100773.00;;;23.70
12061;BMP180;6091;51.432;6.880;2023-01-01T09:30:51;100772.00;;;23.70
12061;BMP180;6091;51.432;6.880;2023-01-01T09:33:18;100765.00;;;23.70
12061;BMP180;6091;51.432;6.880;2023-01-01T09:35:46;100768.00;;;23.70
12061;BMP180;6091;51.432;6.880;2023-01-01T09:38:13;100773.00;;;23.70
12061;BMP180;6091;51.432;6.880;2023-01-01T09:46:07;100786.00;;;23.70
12061;BMP180;6091;51.432;6.880;2023-01-01T09:49:01;100777.00;;;23.60
12061;BMP180;6091;51.432;6.880;2023-01-01T09:51:34;100791.00;;;23.60
12061;BMP180;6091;51.432;6.880;2023-01-01T09:54:27;100786.00;;;23.60
12061;BMP180;6091;51.432;6.880;2023-01-01T09:56:59;100802.00;;;23.60
12061;BMP180;6091;51.432;6.880;2023-01-01T09:59:27;100799.00;;;23.60
12061;BMP180;6091;51.432;6.880;2023-01-01T10:02:31;100798.00;;;23.60
12061;BMP180;6091;51.432;6.880;2023-01-01T10:10:39;100818.00;;;23.60
12061;BMP180;6091;51.432;6.880;2023-01-01T10:16:00;100820.00;;;23.70
12061;BMP180;6091;51.432;6.880;2023-01-01T10:18:33;100793.00;;;23.60
12061;BMP180;6091;51.432;6.880;2023-01-01T10:21:38;100790.00;;;23.60
12061;BMP180;6091;51.432;6.880;2023-01-01T10:27:33;100795.00;;;23.60
12061;BMP180;6091;51.432;6.880;2023-01-01T10:30:29;100797.00;;;23.70
12061;BMP180;6091;51.432;6.880;2023-01-01T10:32:57;100793.00;;;23.70
12061;BMP180;6091;51.432;6.880;2023-01-01T10:35:47;100788.00;;;23.70
12061;BMP180;6091;51.432;6.880;2023-01-01T10:38:24;100797.00;;;23.70
12061;BMP180;6091;51.432;6.880;2023-01-01T10:41:06;100782.00;;;23.70
12061;BMP180;6091;51.432;6.880;2023-01-01T10:43:41;100771.00;;;23.70
12061;BMP180;6091;51.432;6.880;2023-01-01T10:46:12;100767.00;;;23.70
12061;BMP180;6091;51.432;6.880;2023-01-01T10:49:27;100773.00;;;23.70
12061;BMP180;6091;51.432;6.880;2023-01-01T10:51:54;100770.00;;;23.70
12061;BMP180;6091;51.432;6.880;2023-01-01T10:54:39;100780.00;;;23.70
12061;BMP180;6091;51.432;6.880;2023-01-01T10:57:36;100762.00;;;23.70
12061;BMP180;6091;51.432;6.880;2023-01-01T11:03:18;100763.00;;;23.70
12061;BMP180;6091;51.432;6.880;2023-01-01T11:06:21;100774.00;;;23.70
12061;BMP180;6091;51.432;6.880;2023-01-01T11:08:58;100777.00;;;23.70
12061;BMP180;6091;51.432;6.880;2023-01-01T11:14:21;100790.00;;;23.80
12061;BMP180;6091;51.432;6.880;2023-01-01T11:16:55;100797.00;;;23.80
12061;BMP180;6091;51.432;6.880;2023-01-01T11:19:36;100799.00;;;23.80
12061;BMP180;6091;51.432;6.880;2023-01-01T11:22:05;100799.00;;;23.80
12061;BMP180;6091;51.432;6.880;2023-01-01T11:24:38;100802.00;;;23.90
12061;BMP180;6091;51.432;6.880;2023-01-01T11:27:18;100807.00;;;23.70
12061;BMP180;6091;51.432;6.880;2023-01-01T11:29:47;100817.00;;;23.90
12061;BMP180;6091;51.432;6.880;2023-01-01T11:32:33;100812.00;;;23.90
12061;BMP180;6091;51.432;6.880;2023-01-01T11:35:05;100813.00;;;23.90
12061;BMP180;6091;51.432;6.880;2023-01-01T11:37:43;100808.00;;;23.90
12061;BMP180;6091;51.432;6.880;2023-01-01T11:40:26;100804.00;;;23.90
12061;BMP180;6091;51.432;6.880;2023-01-01T11:43:01;100811.00;;;23.90
12061;BMP180;6091;51.432;6.880;2023-01-01T11:45:42;100821.00;;;23.90
12061;BMP180;6091;51.432;6.880;2023-01-01T11:48:31;100837.00;;;23.90
12061;BMP180;6091;51.432;6.880;2023-01-01T11:51:11;100825.00;;;23.90
12061;BMP180;6091;51.432;6.880;2023-01-01T11:54:28;100825.00;;;23.80
12061;BMP180;6091;51.432;6.880;2023-01-01T11:57:11;100828.00;;;23.80
12061;BMP180;6091;51.432;6.880;2023-01-01T11:59:59;100823.00;;;23.80
12061;BMP180;6091;51.432;6.880;2023-01-01T12:03:05;100823.00;;;23.80
12061;BMP180;6091;51.432;6.880;2023-01-01T12:06:08;100812.00;;;23.80
12061;BMP180;6091;51.432;6.880;2023-01-01T12:11:43;100804.00;;;23.80
12061;BMP180;6091;51.432;6.880;2023-01-01T12:14:52;100804.00;;;23.80
12061;BMP180;6091;51.432;6.880;2023-01-01T12:17:43;100789.00;;;23.70
12061;BMP180;6091;51.432;6.880;2023-01-01T12:20:24;100797.00;;;23.80
12061;BMP180;6091;51.432;6.880;2023-01-01T12:22:55;100793.00;;;23.70
12061;BMP180;6091;51.432;6.880;2023-01-01T12:25:41;100782.00;;;23.80
12061;BMP180;6091;51.432;6.880;2023-01-01T12:31:04;100796.00;;;23.80
12061;BMP180;6091;51.432;6.880;2023-01-01T12:33:52;100794.00;;;23.80
12061;BMP180;6091;51.432;6.880;2023-01-01T12:37:45;100789.00;;;23.80
12061;BMP180;6091;51.432;6.880;2023-01-01T12:43:03;100783.00;;;23.80
12061;BMP180;6091;51.432;6.880;2023-01-01T12:46:09;100789.00;;;23.80
12061;BMP180;6091;51.432;6.880;2023-01-01T12:52:06;100803.00;;;23.80
12061;BMP180;6091;51.432;6.880;2023-01-01T12:58:16;100787.00;;;23.80
12061;BMP180;6091;51.432;6.880;2023-01-01T13:01:27;100797.00;;;23.70
12061;BMP180;6091;51.432;6.880;2023-01-01T13:04:04;100793.00;;;23.80
12061;BMP180;6091;51.432;6.880;2023-01-01T13:06:44;100805.00;;;23.80
12061;BMP180;6091;51.432;6.880;2023-01-01T13:09:22;100785.00;;;23.70
12061;BMP180;6091;51.432;6.880;2023-01-01T13:12:08;100785.00;;;23.80
12061;BMP180;6091;51.432;6.880;2023-01-01T13:14:39;100789.00;;;23.80
12061;BMP180;6091;51.432;6.880;2023-01-01T13:17:29;100785.00;;;23.80
12061;BMP180;6091;51.432;6.880;2023-01-01T13:20:23;100796.00;;;23.80
12061;BMP180;6091;51.432;6.880;2023-01-01T13:22:52;100799.00;;;23.80
12061;BMP180;6091;51.432;6.880;2023-01-01T13:25:22;100805.00;;;23.80
12061;BMP180;6091;51.432;6.880;2023-01-01T13:33:28;100806.00;;;23.80
12061;BMP180;6091;51.432;6.880;2023-01-01T13:38:54;100809.00;;;23.80
12061;BMP180;6091;51.432;6.880;2023-01-01T13:41:42;100809.00;;;23.80
12061;BMP180;6091;51.432;6.880;2023-01-01T13:44:31;100803.00;;;23.70
12061;BMP180;6091;51.432;6.880;2023-01-01T13:47:12;100799.00;;;23.80
12061;BMP180;6091;51.432;6.880;2023-01-01T13:50:01;100806.00;;;23.70
12061;BMP180;6091;51.432;6.880;2023-01-01T13:56:20;100804.00;;;23.70
12061;BMP180;6091;51.432;6.880;2023-01-01T13:59:04;100797.00;;;23.70
12061;BMP180;6091;51.432;6.880;2023-01-01T14:05:13;100797.00;;;23.70
12061;BMP180;6091;51.432;6.880;2023-01-01T14:07:49;100790.00;;;23.70
12061;BMP180;6091;51.432;6.880;2023-01-01T14:10:35;100792.00;;;23.70
12061;BMP180;6091;51.432;6.880;2023-01-01T14:15:38;100799.00;;;23.70
12061;BMP180;6091;51.432;6.880;2023-01-01T14:18:16;100797.00;;;23.70
12061;BMP180;6091;51.432;6.880;2023-01-01T14:20:53;100806.00;;;23.70
12061;BMP180;6091;51.432;6.880;2023-01-01T14:23:44;100802.00;;;23.70
12061;BMP180;6091;51.432;6.880;2023-01-01T14:26:17;100802.00;;;23.70
12061;BMP180;6091;51.432;6.880;2023-01-01T14:28:47;100797.00;;;23.70
12061;BMP180;6091;51.432;6.880;2023-01-01T14:31:24;100809.00;;;23.70
12061;BMP180;6091;51.432;6.880;2023-01-01T14:33:52;100807.00;;;23.70
12061;BMP180;6091;51.432;6.880;2023-01-01T14:36:29;100812.00;;;23.70
12061;BMP180;6091;51.432;6.880;2023-01-01T14:38:59;100813.00;;;23.70
12061;BMP180;6091;51.432;6.880;2023-01-01T14:41:40;100822.00;;;23.70
12061;BMP180;6091;51.432;6.880;2023-01-01T14:44:13;100823.00;;;23.70
12061;BMP180;6091;51.432;6.880;2023-01-01T14:46:50;100822.00;;;23.70
12061;BMP180;6091;51.432;6.880;2023-01-01T14:49:34;100829.00;;;23.70
12061;BMP180;6091;51.432;6.880;2023-01-01T14:52:26;100827.00;;;23.70
12061;BMP180;6091;51.432;6.880;2023-01-01T14:54:58;100834.00;;;23.70
12061;BMP180;6091;51.432;6.880;2023-01-01T14:57:30;100832.00;;;23.70
12061;BMP180;6091;51.432;6.880;2023-01-01T14:59:57;100836.00;;;23.60
12061;BMP180;6091;51.432;6.880;2023-01-01T15:02:30;100830.00;;;23.70
12061;BMP180;6091;51.432;6.880;2023-01-01T15:05:27;100836.00;;;23.60
12061;BMP180;6091;51.432;6.880;2023-01-01T15:08:05;100835.00;;;23.60
12061;BMP180;6091;51.432;6.880;2023-01-01T15:10:36;100828.00;;;23.60
12061;BMP180;6091;51.432;6.880;2023-01-01T15:13:06;100828.00;;;23.60
12061;BMP180;6091;51.432;6.880;2023-01-01T15:15:40;100826.00;;;23.60
12061;BMP180;6091;51.432;6.880;2023-01-01T15:21:32;100802.00;;;23.60
12061;BMP180;6091;51.432;6.880;2023-01-01T15:24:20;100796.00;;;23.60
12061;BMP180;6091;51.432;6.880;2023-01-01T15:26:58;100794.00;;;23.60
12061;BMP180;6091;51.432;6.880;2023-01-01T15:29:43;100782.00;;;23.60
12061;BMP180;6091;51.432;6.880;2023-01-01T15:32:14;100780.00;;;23.60
12061;BMP180;6091;51.432;6.880;2023-01-01T15:37:41;100796.00;;;23.60
12061;BMP180;6091;51.432;6.880;2023-01-01T15:42:42;100808.00;;;23.60
12061;BMP180;6091;51.432;6.880;2023-01-01T15:50:40;100821.00;;;23.60
12061;BMP180;6091;51.432;6.880;2023-01-01T15:53:24;100816.00;;;23.60
12061;BMP180;6091;51.432;6.880;2023-01-01T15:56:09;100822.00;;;23.60
12061;BMP180;6091;51.432;6.880;2023-01-01T16:01:21;100828.00;;;23.60
12061;BMP180;6091;51.432;6.880;2023-01-01T16:04:01;100819.00;;;23.60
12061;BMP180;6091;51.432;6.880;2023-01-01T16:06:29;100810.00;;;23.60
12061;BMP180;6091;51.432;6.880;2023-01-01T16:08:56;100825.00;;;23.60
12061;BMP180;6091;51.432;6.880;2023-01-01T16:11:23;100821.00;;;23.60
12061;BMP180;6091;51.432;6.880;2023-01-01T16:13:50;100828.00;;;23.60
12061;BMP180;6091;51.432;6.880;2023-01-01T16:16:27;100822.00;;;23.60
12061;BMP180;6091;51.432;6.880;2023-01-01T16:18:56;100821.00;;;23.60
12061;BMP180;6091;51.432;6.880;2023-01-01T16:21:27;100820.00;;;23.60
12061;BMP180;6091;51.432;6.880;2023-01-01T16:23:55;100821.00;;;23.60
12061;BMP180;6091;51.432;6.880;2023-01-01T16:26:22;100835.00;;;23.60
12061;BMP180;6091;51.432;6.880;2023-01-01T16:28:49;100826.00;;;23.60
12061;BMP180;6091;51.432;6.880;2023-01-01T16:31:26;100832.00;;;23.60
12061;BMP180;6091;51.432;6.880;2023-01-01T16:33:57;100834.00;;;23.60
12061;BMP180;6091;51.432;6.880;2023-01-01T16:36:25;100834.00;;;23.60